Private Wetterstation Wechselburg
Wetterdaten: Samstag, 09.01.2016
Datum Zeit Temp. +2m Bodentemp. Temp.+5cm Temp. Wind Windchill X Diff Temp. Feuchte +2m Feuchte +5cm Sonnenschein Luftdruck Regen Wind Richtung Richtung Sonnenschein Taupunkt Windchill Windben
09.01.2016 00:00 -2,3 C 22,2 C -2,3 C -2,7 C -3,4 C 0,0 C 82 % 89 % 0 % 1007,9 hPa 0,0 l/m 0,0 km/h (0 Bft) S-SO 157 0 min -4,9 C -3,4 C 0,0 km/h (0 Bft)
09.01.2016 00:05 -2,4 C 22,1 C -2,4 C -2,7 C -3,4 C 0,0 C 82 % 89 % 0 % 1007,9 hPa 0,0 l/m 0,0 km/h (0 Bft) W 270 0 min -5,0 C -3,4 C 0,0 km/h (0 Bft)
09.01.2016 00:10 -2,5 C 22,1 C -2,3 C -2,8 C -3,5 C 0,0 C 82 % 89 % 0 % 1007,9 hPa 0,0 l/m 0,0 km/h (0 Bft) NW 315 0 min -5,1 C -3,5 C 0,0 km/h (0 Bft)
09.01.2016 00:15 -2,5 C 22,2 C -2,5 C -2,8 C -3,4 C 0,0 C 82 % 89 % 0 % 1007,9 hPa 0,0 l/m 0,0 km/h (0 Bft) NW 315 0 min -5,1 C -3,4 C 0,0 km/h (0 Bft)
09.01.2016 00:20 -2,7 C 22,1 C -2,7 C -3,0 C -3,6 C 0,0 C 82 % 89 % 0 % 1007,9 hPa 0,0 l/m 0,0 km/h (0 Bft) NW 315 0 min -5,3 C -3,6 C 0,0 km/h (0 Bft)
09.01.2016 00:25 -2,9 C 22,1 C -2,8 C -3,2 C -3,7 C 0,0 C 83 % 89 % 0 % 1007,9 hPa 0,0 l/m 0,0 km/h (0 Bft) W-SW 247 0 min -5,4 C -3,7 C 0,0 km/h (0 Bft)
09.01.2016 00:30 -2,9 C 22,1 C -2,9 C -3,2 C -3,9 C 0,0 C 83 % 89 % 0 % 1007,6 hPa 0,0 l/m 0,0 km/h (0 Bft) O-NO 67 0 min -5,4 C -3,9 C 0,0 km/h (0 Bft)
09.01.2016 00:35 -2,9 C 22,2 C -2,9 C -3,2 C -3,8 C 0,0 C 83 % 89 % 0 % 1007,6 hPa 0,0 l/m 0,0 km/h (0 Bft) O-NO 67 0 min -5,4 C -3,8 C 0,0 km/h (0 Bft)
09.01.2016 00:41 -3,1 C 22,1 C -2,9 C -3,3 C -3,7 C 0,0 C 83 % 89 % 0 % 1007,6 hPa 0,0 l/m 0,0 km/h (0 Bft) N 0 0 min -5,6 C -3,7 C 0,0 km/h (0 Bft)
09.01.2016 00:50 -3,2 C 22,1 C -2,9 C -3,4 C -3,8 C 0,0 C 84 % 90 % 0 % 1007,6 hPa 0,0 l/m 0,0 km/h (0 Bft) W-SW 247 0 min -5,5 C -3,8 C 0,0 km/h (0 Bft)
09.01.2016 00:55 -3,2 C 22,1 C -2,9 C -3,4 C -3,9 C 0,0 C 84 % 90 % 0 % 1007,6 hPa 0,0 l/m 0,0 km/h (0 Bft) W-SW 247 0 min -5,5 C -3,9 C 0,0 km/h (0 Bft)
09.01.2016 01:00 -3,3 C 22,1 C -3,1 C -3,5 C -4,0 C 0,0 C 84 % 90 % 0 % 1007,6 hPa 0,0 l/m 0,0 km/h (0 Bft) W-SW 247 0 min -5,6 C -4,0 C 0,0 km/h (0 Bft)
09.01.2016 01:05 -3,3 C 22,1 C -3,1 C -3,5 C -4,0 C 0,0 C 84 % 90 % 0 % 1007,6 hPa 0,0 l/m 0,0 km/h (0 Bft) W-NW 292 0 min -5,6 C -4,0 C 0,0 km/h (0 Bft)
09.01.2016 01:10 -3,5 C 22,1 C -3,1 C -3,7 C -4,0 C 0,0 C 84 % 90 % 0 % 1007,7 hPa 0,0 l/m 0,0 km/h (0 Bft) NW 315 0 min -5,8 C -4,0 C 0,0 km/h (0 Bft)
09.01.2016 01:15 -3,6 C 22,1 C -3,1 C -3,8 C -4,1 C 0,0 C 84 % 90 % 0 % 1007,7 hPa 0,0 l/m 0,0 km/h (0 Bft) NW 315 0 min -5,9 C -4,1 C 0,0 km/h (0 Bft)
09.01.2016 01:20 -3,7 C 22,1 C -3,2 C -3,8 C -4,1 C 0,0 C 84 % 90 % 0 % 1007,7 hPa 0,0 l/m 0,0 km/h (0 Bft) O-NO 67 0 min -6,0 C -4,1 C 0,0 km/h (0 Bft)
09.01.2016 01:25 -3,8 C 22,1 C -3,1 C -3,9 C -4,1 C 0,0 C 84 % 90 % 0 % 1007,7 hPa 0,0 l/m 0,0 km/h (0 Bft) O-NO 67 0 min -6,1 C -4,1 C 0,0 km/h (0 Bft)
09.01.2016 01:30 -3,9 C 22,1 C -3,5 C -4,0 C -4,3 C 0,0 C 84 % 90 % 0 % 1007,6 hPa 0,0 l/m 0,0 km/h (0 Bft) O-NO 67 0 min -6,2 C -4,3 C 0,0 km/h (0 Bft)
09.01.2016 01:35 -4,0 C 22,1 C -3,5 C -4,1 C -4,4 C 0,0 C 84 % 90 % 0 % 1007,6 hPa 0,0 l/m 0,0 km/h (0 Bft) O-NO 67 0 min -6,3 C -4,4 C 0,0 km/h (0 Bft)
09.01.2016 01:40 -4,1 C 22,1 C -3,5 C -4,3 C -4,6 C 0,0 C 84 % 90 % 0 % 1007,6 hPa 0,0 l/m 0,0 km/h (0 Bft) NW 315 0 min -6,4 C -4,6 C 0,0 km/h (0 Bft)
09.01.2016 01:45 -4,1 C 22,2 C -3,5 C -4,3 C -4,6 C 0,0 C 84 % 90 % 0 % 1007,6 hPa 0,0 l/m 0,0 km/h (0 Bft) NW 315 0 min -6,4 C -4,6 C 0,0 km/h (0 Bft)
09.01.2016 01:50 -4,1 C 22,2 C -3,5 C -4,3 C -4,8 C 0,0 C 84 % 90 % 0 % 1007,6 hPa 0,0 l/m 0,0 km/h (0 Bft) W-SW 247 0 min -6,4 C -4,8 C 0,0 km/h (0 Bft)
09.01.2016 01:55 -4,3 C 22,2 C -3,5 C -4,5 C -4,9 C 0,0 C 84 % 90 % 0 % 1007,6 hPa 0,0 l/m 0,0 km/h (0 Bft) W-SW 247 0 min -6,6 C -4,9 C 0,0 km/h (0 Bft)
09.01.2016 02:00 -4,4 C 22,2 C -3,7 C -4,5 C -4,8 C 0,0 C 84 % 90 % 0 % 1007,6 hPa 0,0 l/m 0,0 km/h (0 Bft) NO 45 0 min -6,7 C -4,8 C 0,0 km/h (0 Bft)
09.01.2016 02:05 -4,4 C 22,1 C -3,7 C -4,5 C -4,7 C 0,0 C 84 % 90 % 0 % 1007,6 hPa 0,0 l/m 0,0 km/h (0 Bft) NO 45 0 min -6,7 C -4,7 C 0,0 km/h (0 Bft)
09.01.2016 02:10 -4,5 C 22,1 C -3,7 C -4,6 C -4,8 C 0,0 C 84 % 90 % 0 % 1007,8 hPa 0,0 l/m 0,0 km/h (0 Bft) SW 225 0 min -6,8 C -4,8 C 0,0 km/h (0 Bft)
09.01.2016 02:15 -4,6 C 22,1 C -3,7 C -4,7 C -4,9 C 0,0 C 85 % 90 % 0 % 1007,8 hPa 0,0 l/m 0,0 km/h (0 Bft) NW 315 0 min -6,7 C -4,9 C 0,0 km/h (0 Bft)
09.01.2016 02:20 -4,5 C 22,1 C -3,7 C -4,6 C -4,7 C 0,0 C 85 % 90 % 0 % 1007,8 hPa 0,0 l/m 0,0 km/h (0 Bft) NW 315 0 min -6,6 C -4,7 C 0,0 km/h (0 Bft)
09.01.2016 02:25 -4,5 C 22,1 C -3,7 C -4,6 C -4,8 C 0,0 C 85 % 90 % 0 % 1007,8 hPa 0,0 l/m 0,0 km/h (0 Bft) NW 315 0 min -6,6 C -4,8 C 0,0 km/h (0 Bft)
09.01.2016 02:30 -4,5 C 22,1 C -3,7 C -4,7 C -5,0 C 0,0 C 85 % 90 % 0 % 1007,9 hPa 0,0 l/m 0,0 km/h (0 Bft) NW 315 0 min -6,6 C -5,0 C 0,0 km/h (0 Bft)
09.01.2016 02:35 -4,5 C 22,1 C -3,7 C -4,6 C -4,9 C 0,0 C 85 % 90 % 0 % 1007,9 hPa 0,0 l/m 0,0 km/h (0 Bft) NW 315 0 min -6,6 C -4,9 C 0,0 km/h (0 Bft)
09.01.2016 02:40 -4,7 C 22,1 C -3,9 C -4,8 C -4,9 C 0,0 C 85 % 90 % 0 % 1007,9 hPa 0,0 l/m 0,0 km/h (0 Bft) NW 315 0 min -6,8 C -4,9 C 0,0 km/h (0 Bft)
09.01.2016 02:45 -4,8 C 22,1 C -3,9 C -4,9 C -5,0 C 0,0 C 85 % 90 % 0 % 1007,9 hPa 0,0 l/m 0,0 km/h (0 Bft) NW 315 0 min -6,9 C -5,0 C 0,0 km/h (0 Bft)
09.01.2016 02:50 -4,9 C 22,1 C -4,0 C -4,9 C -5,0 C 0,0 C 85 % 90 % 0 % 1007,9 hPa 0,0 l/m 0,0 km/h (0 Bft) NW 315 0 min -7,0 C -5,0 C 0,0 km/h (0 Bft)
09.01.2016 02:55 -4,9 C 22,1 C -3,9 C -4,9 C -5,0 C 0,0 C 85 % 90 % 0 % 1007,9 hPa 0,0 l/m 0,0 km/h (0 Bft) NW 315 0 min -7,0 C -5,0 C 0,0 km/h (0 Bft)
09.01.2016 03:00 -4,9 C 22,1 C -4,1 C -4,9 C -5,0 C 0,0 C 85 % 90 % 0 % 1007,9 hPa 0,0 l/m 0,0 km/h (0 Bft) NW 315 0 min -7,0 C -5,0 C 0,0 km/h (0 Bft)
09.01.2016 03:05 -5,1 C 22,1 C -4,1 C -5,0 C -5,0 C 0,1 C 85 % 90 % 0 % 1007,9 hPa 0,0 l/m 0,0 km/h (0 Bft) NW 315 0 min -7,2 C -5,0 C 0,0 km/h (0 Bft)
09.01.2016 03:10 -5,1 C 22,0 C -4,1 C -5,1 C -5,1 C 0,0 C 85 % 90 % 0 % 1007,6 hPa 0,0 l/m 0,0 km/h (0 Bft) W 270 0 min -7,2 C -5,1 C 0,0 km/h (0 Bft)
09.01.2016 03:15 -5,3 C 22,0 C -4,1 C -5,3 C -5,3 C 0,0 C 85 % 90 % 0 % 1007,6 hPa 0,0 l/m 0,0 km/h (0 Bft) SO 135 0 min -7,4 C -5,3 C 0,0 km/h (0 Bft)
09.01.2016 03:20 -5,2 C 22,0 C -4,1 C -5,1 C -5,1 C 0,1 C 86 % 90 % 0 % 1007,6 hPa 0,0 l/m 0,0 km/h (0 Bft) O-NO 67 0 min -7,2 C -5,1 C 0,0 km/h (0 Bft)
09.01.2016 03:25 -4,9 C 22,0 C -4,1 C -4,9 C -5,0 C 0,0 C 86 % 90 % 0 % 1007,6 hPa 0,0 l/m 0,0 km/h (0 Bft) O-NO 67 0 min -6,9 C -5,0 C 0,0 km/h (0 Bft)
09.01.2016 03:30 -4,9 C 22,0 C -4,1 C -4,9 C -5,0 C 0,0 C 86 % 90 % 0 % 1007,7 hPa 0,0 l/m 0,0 km/h (0 Bft) O-NO 67 0 min -6,9 C -5,0 C 0,0 km/h (0 Bft)
09.01.2016 03:35 -5,1 C 22,0 C -4,1 C -5,0 C -5,0 C 0,1 C 86 % 90 % 0 % 1007,7 hPa 0,0 l/m 0,0 km/h (0 Bft) O-NO 67 0 min -7,1 C -5,0 C 0,0 km/h (0 Bft)
09.01.2016 03:41 -4,9 C 22,0 C -4,1 C -4,9 C -4,9 C 0,0 C 86 % 90 % 0 % 1007,7 hPa 0,0 l/m 0,0 km/h (0 Bft) N 0 0 min -6,9 C -4,9 C 0,0 km/h (0 Bft)
09.01.2016 03:50 -5,1 C 22,0 C -4,1 C -5,0 C -5,0 C 0,1 C 86 % 90 % 0 % 1007,6 hPa 0,0 l/m 0,0 km/h (0 Bft) N-NW 337 0 min -7,1 C -5,0 C 0,0 km/h (0 Bft)
09.01.2016 03:55 -5,1 C 22,0 C -4,1 C -5,0 C -5,0 C 0,1 C 86 % 90 % 0 % 1007,6 hPa 0,0 l/m 0,0 km/h (0 Bft) N-NW 337 0 min -7,1 C -5,0 C 0,0 km/h (0 Bft)
09.01.2016 04:00 -5,2 C 21,9 C -4,1 C -5,2 C -5,3 C 0,0 C 86 % 91 % 0 % 1007,6 hPa 0,0 l/m 0,0 km/h (0 Bft) W-SW 247 0 min -7,2 C -5,3 C 0,0 km/h (0 Bft)
09.01.2016 04:05 -5,3 C 22,0 C -4,2 C -5,3 C -5,3 C 0,0 C 86 % 90 % 0 % 1007,6 hPa 0,0 l/m 0,0 km/h (0 Bft) NW 315 0 min -7,3 C -5,3 C 0,0 km/h (0 Bft)
09.01.2016 04:10 -5,3 C 21,9 C -4,3 C -5,3 C -5,3 C 0,0 C 86 % 90 % 0 % 1007,5 hPa 0,0 l/m 0,0 km/h (0 Bft) W-NW 292 0 min -7,3 C -5,3 C 0,0 km/h (0 Bft)
09.01.2016 04:15 -5,3 C 21,9 C -4,1 C -5,3 C -5,4 C 0,0 C 86 % 90 % 0 % 1007,5 hPa 0,0 l/m 0,0 km/h (0 Bft) W 270 0 min -7,3 C -5,4 C 0,0 km/h (0 Bft)
09.01.2016 04:20 -5,5 C 21,9 C -4,1 C -5,3 C -5,3 C 0,2 C 86 % 91 % 0 % 1007,5 hPa 0,0 l/m 0,0 km/h (0 Bft) N-NW 337 0 min -7,5 C -5,3 C 0,0 km/h (0 Bft)
09.01.2016 04:25 -5,5 C 21,9 C -4,3 C -5,4 C -5,4 C 0,1 C 86 % 91 % 0 % 1007,5 hPa 0,0 l/m 0,0 km/h (0 Bft) N-NW 337 0 min -7,5 C -5,4 C 0,0 km/h (0 Bft)
09.01.2016 04:30 -5,5 C 21,9 C -4,4 C -5,4 C -5,4 C 0,1 C 86 % 90 % 0 % 1007,9 hPa 0,0 l/m 0,0 km/h (0 Bft) W 270 0 min -7,5 C -5,4 C 0,0 km/h (0 Bft)
09.01.2016 04:35 -5,5 C 21,9 C -4,4 C -5,5 C -5,5 C 0,0 C 86 % 90 % 0 % 1007,9 hPa 0,0 l/m 0,0 km/h (0 Bft) W 270 0 min -7,5 C -5,5 C 0,0 km/h (0 Bft)
09.01.2016 04:40 -5,5 C 21,9 C -4,4 C -5,3 C -5,3 C 0,2 C 87 % 91 % 0 % 1007,9 hPa 0,0 l/m 0,0 km/h (0 Bft) O-NO 67 0 min -7,3 C -5,3 C 0,0 km/h (0 Bft)
09.01.2016 04:45 -5,3 C 21,9 C -4,3 C -5,0 C -5,0 C 0,3 C 87 % 91 % 0 % 1007,9 hPa 0,0 l/m 0,0 km/h (0 Bft) O-NO 67 0 min -7,1 C -5,0 C 0,0 km/h (0 Bft)
09.01.2016 04:50 -5,3 C 21,9 C -4,3 C -5,0 C -5,0 C 0,3 C 87 % 91 % 0 % 1007,3 hPa 0,0 l/m 0,0 km/h (0 Bft) SW 225 0 min -7,1 C -5,0 C 0,0 km/h (0 Bft)
09.01.2016 04:55 -5,3 C 21,9 C -4,2 C -4,8 C -4,8 C 0,5 C 87 % 91 % 0 % 1007,3 hPa 0,0 l/m 0,0 km/h (0 Bft) SW 225 0 min -7,1 C -4,8 C 0,0 km/h (0 Bft)
09.01.2016 05:00 -5,1 C 21,9 C -3,9 C -4,6 C -4,6 C 0,5 C 87 % 91 % 0 % 1007,3 hPa 0,0 l/m 0,0 km/h (0 Bft) O-NO 67 0 min -6,9 C -4,6 C 0,0 km/h (0 Bft)
09.01.2016 05:05 -4,9 C 21,9 C -3,7 C -4,1 C -4,1 C 0,8 C 87 % 91 % 0 % 1007,3 hPa 0,0 l/m 0,0 km/h (0 Bft) NO 45 0 min -6,7 C -4,1 C 0,0 km/h (0 Bft)
09.01.2016 05:10 -4,9 C 21,9 C -3,3 C -3,9 C -3,9 C 1,0 C 87 % 91 % 0 % 1007,0 hPa 0,0 l/m 0,0 km/h (0 Bft) W-NW 292 0 min -6,7 C -3,9 C 0,0 km/h (0 Bft)
09.01.2016 05:15 -4,7 C 21,9 C -3,3 C -3,6 C -3,6 C 1,1 C 88 % 91 % 0 % 1007,0 hPa 0,0 l/m 0,0 km/h (0 Bft) W-NW 292 0 min -6,4 C -3,6 C 0,0 km/h (0 Bft)
09.01.2016 05:20 -4,5 C 21,9 C -3,1 C -3,4 C -3,4 C 1,1 C 88 % 91 % 0 % 1007,0 hPa 0,0 l/m 0,0 km/h (0 Bft) NW 315 0 min -6,2 C -3,4 C 0,0 km/h (0 Bft)
09.01.2016 05:25 -4,5 C 21,9 C -2,9 C -3,4 C -3,4 C 1,1 C 88 % 91 % 0 % 1007,0 hPa 0,0 l/m 0,0 km/h (0 Bft) O-NO 67 0 min -6,2 C -3,4 C 0,0 km/h (0 Bft)
09.01.2016 05:30 -4,4 C 21,9 C -3,0 C -3,4 C -3,4 C 1,0 C 88 % 91 % 0 % 1006,9 hPa 0,0 l/m 0,3 km/h (0 Bft) O-NO 67 0 min -6,1 C -3,4 C 0,0 km/h (0 Bft)
09.01.2016 05:35 -4,3 C 21,9 C -2,9 C -3,3 C -3,3 C 1,0 C 88 % 91 % 0 % 1006,9 hPa 0,0 l/m 0,5 km/h (0 Bft) NW 315 0 min -6,0 C -3,3 C 1,6 km/h (1 Bft)
09.01.2016 05:40 -3,9 C 21,8 C -2,8 C -3,0 C -3,0 C 0,9 C 88 % 91 % 0 % 1006,9 hPa 0,0 l/m 1,0 km/h (0 Bft) W-NW 292 0 min -5,6 C -3,0 C 0,0 km/h (0 Bft)
09.01.2016 05:45 -3,9 C 21,9 C -2,5 C -2,9 C -2,9 C 1,0 C 88 % 91 % 0 % 1006,9 hPa 0,0 l/m 0,8 km/h (0 Bft) NW 315 0 min -5,6 C -2,9 C 0,0 km/h (0 Bft)
09.01.2016 05:50 -3,9 C 21,8 C -2,5 C -2,8 C -2,8 C 1,1 C 88 % 91 % 0 % 1006,4 hPa 0,0 l/m 0,5 km/h (0 Bft) S-SW 202 0 min -5,6 C -2,8 C 0,0 km/h (0 Bft)
09.01.2016 05:55 -3,9 C 21,8 C -2,5 C -3,0 C -3,0 C 0,9 C 88 % 91 % 0 % 1006,4 hPa 0,0 l/m 0,3 km/h (0 Bft) NW 315 0 min -5,6 C -3,0 C 0,0 km/h (0 Bft)
09.01.2016 06:00 -4,1 C 21,8 C -2,5 C -3,0 C -3,0 C 1,1 C 88 % 91 % 0 % 1006,4 hPa 0,0 l/m 0,0 km/h (0 Bft) SW 225 0 min -5,8 C -3,0 C 0,0 km/h (0 Bft)
09.01.2016 06:05 -4,1 C 21,8 C -2,5 C -2,9 C -2,9 C 1,2 C 88 % 91 % 0 % 1006,4 hPa 0,0 l/m 0,0 km/h (0 Bft) SW 225 0 min -5,8 C -2,9 C 0,0 km/h (0 Bft)
09.01.2016 06:10 -3,9 C 21,7 C -2,1 C -2,7 C -2,7 C 1,2 C 88 % 91 % 0 % 1006,4 hPa 0,0 l/m 0,0 km/h (0 Bft) W-SW 247 0 min -5,6 C -2,7 C 0,0 km/h (0 Bft)
09.01.2016 06:15 -3,7 C 21,8 C -2,1 C -2,6 C -2,6 C 1,1 C 88 % 91 % 0 % 1006,4 hPa 0,0 l/m 0,0 km/h (0 Bft) N-NO 22 0 min -5,4 C -2,6 C 0,0 km/h (0 Bft)
09.01.2016 06:20 -3,7 C 21,8 C -2,1 C -2,5 C -2,5 C 1,2 C 88 % 91 % 0 % 1006,4 hPa 0,0 l/m 0,0 km/h (0 Bft) W-NW 292 0 min -5,4 C -2,5 C 0,0 km/h (0 Bft)
09.01.2016 06:25 -3,7 C 21,7 C -2,0 C -2,5 C -2,5 C 1,2 C 88 % 91 % 0 % 1006,4 hPa 0,0 l/m 0,0 km/h (0 Bft) NW 315 0 min -5,4 C -2,5 C 0,0 km/h (0 Bft)
09.01.2016 06:30 -3,5 C 21,7 C -1,9 C -2,4 C -2,4 C 1,1 C 88 % 91 % 0 % 1006,9 hPa 0,0 l/m 0,0 km/h (0 Bft) NW 315 0 min -5,2 C -2,4 C 0,0 km/h (0 Bft)
09.01.2016 06:35 -3,3 C 21,7 C -1,9 C -2,4 C -2,4 C 0,9 C 88 % 91 % 0 % 1006,9 hPa 0,0 l/m 0,3 km/h (0 Bft) NW 315 0 min -5,0 C -2,4 C 2,3 km/h (1 Bft)
09.01.2016 06:41 -3,3 C 21,7 C -1,7 C -2,3 C -2,3 C 1,0 C 88 % 91 % 0 % 1006,9 hPa 0,0 l/m 0,3 km/h (0 Bft) N 0 0 min -5,0 C -2,3 C 0,0 km/h (0 Bft)
09.01.2016 06:50 -3,3 C 21,6 C -1,7 C -2,4 C -2,4 C 0,9 C 88 % 91 % 0 % 1006,8 hPa 0,0 l/m 0,0 km/h (0 Bft) S 180 0 min -5,0 C -2,4 C 0,0 km/h (0 Bft)
09.01.2016 06:55 -3,3 C 21,6 C -1,8 C -2,5 C -2,5 C 0,8 C 88 % 91 % 0 % 1006,8 hPa 0,0 l/m 0,0 km/h (0 Bft) NW 315 0 min -5,0 C -2,5 C 0,0 km/h (0 Bft)
09.01.2016 07:00 -3,3 C 21,6 C -2,0 C -2,7 C -2,7 C 0,6 C 88 % 91 % 0 % 1006,8 hPa 0,0 l/m 0,0 km/h (0 Bft) N-NO 22 0 min -5,0 C -2,7 C 0,0 km/h (0 Bft)
09.01.2016 07:05 -3,3 C 21,6 C -2,1 C -2,9 C -2,9 C 0,4 C 88 % 90 % 0 % 1006,8 hPa 0,0 l/m 0,0 km/h (0 Bft) W 270 0 min -5,0 C -2,9 C 0,0 km/h (0 Bft)
09.01.2016 07:10 -3,3 C 21,6 C -2,1 C -3,1 C -3,1 C 0,2 C 88 % 90 % 0 % 1006,1 hPa 0,0 l/m 0,0 km/h (0 Bft) O-NO 67 0 min -5,0 C -3,1 C 0,0 km/h (0 Bft)
09.01.2016 07:15 -3,5 C 21,6 C -2,3 C -3,2 C -3,2 C 0,3 C 88 % 90 % 0 % 1006,1 hPa 0,0 l/m 0,0 km/h (0 Bft) N-NO 22 0 min -5,2 C -3,2 C 0,0 km/h (0 Bft)
09.01.2016 07:20 -3,5 C 21,6 C -2,5 C -3,4 C -3,4 C 0,1 C 88 % 90 % 0 % 1006,1 hPa 0,0 l/m 0,0 km/h (0 Bft) N-NO 22 0 min -5,2 C -3,4 C 0,0 km/h (0 Bft)
09.01.2016 07:25 -3,5 C 21,6 C -2,5 C -3,5 C -3,5 C 0,0 C 88 % 90 % 0 % 1006,1 hPa 0,0 l/m 0,0 km/h (0 Bft) N-NO 22 0 min -5,2 C -3,5 C 0,0 km/h (0 Bft)
09.01.2016 07:30 -3,7 C 21,6 C -2,7 C -3,7 C -3,8 C 0,0 C 88 % 90 % 0 % 1006,1 hPa 0,0 l/m 0,0 km/h (0 Bft) W 270 0 min -5,4 C -3,8 C 0,0 km/h (0 Bft)
09.01.2016 07:35 -3,7 C 21,7 C -2,9 C -3,8 C -4,0 C 0,0 C 88 % 90 % 0 % 1006,1 hPa 0,0 l/m 0,0 km/h (0 Bft) SW 225 0 min -5,4 C -4,0 C 0,0 km/h (0 Bft)
09.01.2016 07:40 -3,9 C 21,6 C -2,9 C -3,9 C -4,0 C 0,0 C 87 % 90 % 0 % 1006,1 hPa 0,0 l/m 0,0 km/h (0 Bft) W-NW 292 0 min -5,7 C -4,0 C 0,0 km/h (0 Bft)
09.01.2016 07:45 -3,9 C 21,6 C -3,0 C -4,0 C -4,1 C 0,0 C 88 % 90 % 0 % 1006,1 hPa 0,0 l/m 0,0 km/h (0 Bft) NW 315 0 min -5,6 C -4,1 C 0,0 km/h (0 Bft)
09.01.2016 07:50 -4,0 C 21,6 C -2,9 C -4,0 C -4,0 C 0,0 C 88 % 90 % 0 % 1006,2 hPa 0,0 l/m 0,0 km/h (0 Bft) N 360 0 min -5,7 C -4,0 C 0,0 km/h (0 Bft)
09.01.2016 07:55 -4,0 C 21,6 C -3,0 C -4,0 C -4,0 C 0,0 C 88 % 90 % 0 % 1006,2 hPa 0,0 l/m 0,0 km/h (0 Bft) N-NW 337 0 min -5,7 C -4,0 C 0,0 km/h (0 Bft)
09.01.2016 08:00 -4,1 C 21,6 C -3,1 C -4,1 C -4,2 C 0,0 C 87 % 90 % 0 % 1006,2 hPa 0,0 l/m 0,2 km/h (0 Bft) NW 315 0 min -5,9 C -4,2 C 0,0 km/h (0 Bft)
09.01.2016 08:05 -4,1 C 21,6 C -3,3 C -4,1 C -4,1 C 0,0 C 88 % 90 % 0 % 1006,2 hPa 0,0 l/m 0,2 km/h (0 Bft) W-SW 247 0 min -5,8 C -4,1 C 0,0 km/h (0 Bft)
09.01.2016 08:10 -4,1 C 21,6 C -3,3 C -4,1 C -4,2 C 0,0 C 87 % 90 % 0 % 1006,3 hPa 0,0 l/m 0,0 km/h (0 Bft) W-SW 247 0 min -5,9 C -4,2 C 0,0 km/h (0 Bft)
09.01.2016 08:15 -4,3 C 21,6 C -3,3 C -4,3 C -4,3 C 0,0 C 87 % 90 % 0 % 1006,3 hPa 0,0 l/m 0,0 km/h (0 Bft) O-NO 67 0 min -6,1 C -4,3 C 0,0 km/h (0 Bft)
09.01.2016 08:20 -4,3 C 21,6 C -3,5 C -4,2 C -4,2 C 0,1 C 88 % 90 % 0 % 1006,3 hPa 0,0 l/m 0,0 km/h (0 Bft) O 90 0 min -6,0 C -4,2 C 0,0 km/h (0 Bft)
09.01.2016 08:25 -4,3 C 21,6 C -3,5 C -4,1 C -4,1 C 0,2 C 88 % 90 % 5 % 1006,3 hPa 0,0 l/m 0,0 km/h (0 Bft) N-NO 22 5 min -6,0 C -4,1 C 0,0 km/h (0 Bft)
09.01.2016 08:30 -4,3 C 21,6 C -3,5 C -4,0 C -4,0 C 0,3 C 88 % 90 % 8 % 1006,6 hPa 0,0 l/m 0,0 km/h (0 Bft) N-NW 337 5 min -6,0 C -4,0 C 0,0 km/h (0 Bft)
09.01.2016 08:35 -4,3 C 21,6 C -3,3 C -4,0 C -4,0 C 0,3 C 88 % 90 % 8 % 1006,6 hPa 0,0 l/m 0,0 km/h (0 Bft) N-NO 22 0 min -6,0 C -4,0 C 0,0 km/h (0 Bft)
09.01.2016 08:40 -4,1 C 21,5 C -3,3 C -3,9 C -3,9 C 0,2 C 88 % 91 % 5 % 1006,6 hPa 0,0 l/m 0,0 km/h (0 Bft) NW 315 0 min -5,8 C -3,9 C 0,0 km/h (0 Bft)
09.01.2016 08:45 -4,1 C 21,5 C -3,2 C -3,8 C -3,8 C 0,3 C 88 % 91 % 8 % 1006,6 hPa 0,0 l/m 0,0 km/h (0 Bft) W 270 0 min -5,8 C -3,8 C 0,0 km/h (0 Bft)
09.01.2016 08:50 -4,1 C 21,5 C -2,9 C -3,5 C -3,5 C 0,6 C 88 % 91 % 16 % 1006,6 hPa 0,0 l/m 0,2 km/h (0 Bft) W-NW 292 0 min -5,8 C -3,5 C 0,0 km/h (0 Bft)
09.01.2016 08:55 -4,0 C 21,5 C -2,9 C -3,4 C -3,4 C 0,6 C 88 % 90 % 16 % 1006,6 hPa 0,0 l/m 0,2 km/h (0 Bft) W-NW 292 0 min -5,7 C -3,4 C 0,0 km/h (0 Bft)
09.01.2016 09:00 -3,9 C 21,5 C -2,7 C -3,1 C -3,1 C 0,8 C 88 % 91 % 21 % 1006,6 hPa 0,0 l/m 0,0 km/h (0 Bft) W-NW 292 0 min -5,6 C -3,1 C 0,0 km/h (0 Bft)
09.01.2016 09:05 -3,7 C 21,5 C -2,5 C -2,9 C -2,9 C 0,8 C 88 % 91 % 21 % 1006,6 hPa 0,0 l/m 0,0 km/h (0 Bft) NW 315 0 min -5,4 C -2,9 C 0,0 km/h (0 Bft)
09.01.2016 09:10 -3,5 C 21,4 C -2,4 C -2,6 C -2,6 C 0,9 C 88 % 91 % 24 % 1006,4 hPa 0,0 l/m 0,2 km/h (0 Bft) NW 315 0 min -5,2 C -2,6 C 0,0 km/h (0 Bft)
09.01.2016 09:15 -3,5 C 21,4 C -2,1 C -2,5 C -2,5 C 1,0 C 88 % 91 % 26 % 1006,4 hPa 0,0 l/m 0,2 km/h (0 Bft) NW 315 0 min -5,2 C -2,5 C 0,0 km/h (0 Bft)
09.01.2016 09:20 -3,3 C 21,4 C -2,0 C -2,2 C -2,2 C 1,1 C 88 % 91 % 29 % 1006,4 hPa 0,0 l/m 0,0 km/h (0 Bft) NW 315 0 min -5,0 C -2,2 C 0,0 km/h (0 Bft)
09.01.2016 09:25 -3,2 C 21,4 C -1,8 C -2,0 C -2,0 C 1,2 C 88 % 91 % 32 % 1006,4 hPa 0,0 l/m 0,0 km/h (0 Bft) N-NW 337 0 min -4,9 C -2,0 C 0,0 km/h (0 Bft)
09.01.2016 09:30 -2,9 C 21,4 C -1,6 C -1,8 C -1,8 C 1,1 C 89 % 91 % 29 % 1006,9 hPa 0,0 l/m 0,3 km/h (0 Bft) N-NW 337 0 min -4,5 C -1,8 C 0,0 km/h (0 Bft)
09.01.2016 09:35 -2,9 C 21,3 C -1,3 C -1,6 C -1,6 C 1,3 C 89 % 91 % 34 % 1006,9 hPa 0,0 l/m 0,3 km/h (0 Bft) W-SW 247 0 min -4,5 C -1,6 C 0,0 km/h (0 Bft)
09.01.2016 09:41 -2,5 C 21,3 C -1,1 C -1,3 C -1,3 C 1,2 C 89 % 90 % 32 % 1006,9 hPa 0,0 l/m 0,3 km/h (0 Bft) N 0 0 min -4,1 C -1,3 C 0,0 km/h (0 Bft)
09.01.2016 09:50 -2,1 C 21,3 C -0,7 C -0,9 C -0,9 C 1,2 C 89 % 90 % 32 % 1006,9 hPa 0,0 l/m 0,6 km/h (0 Bft) NW 315 0 min -3,7 C -0,9 C 2,1 km/h (1 Bft)
09.01.2016 09:55 -1,7 C 21,4 C -0,5 C -0,8 C -0,8 C 0,9 C 89 % 90 % 24 % 1006,9 hPa 0,0 l/m 0,8 km/h (0 Bft) NW 315 0 min -3,3 C -0,8 C 2,1 km/h (1 Bft)
09.01.2016 10:00 -1,5 C 21,3 C -0,3 C -0,7 C -0,7 C 0,8 C 88 % 90 % 21 % 1006,9 hPa 0,0 l/m 0,8 km/h (0 Bft) NW 315 0 min -3,2 C -0,7 C 1,6 km/h (1 Bft)
09.01.2016 10:05 -1,3 C 21,3 C -0,3 C -0,6 C -0,6 C 0,7 C 88 % 90 % 18 % 1006,9 hPa 0,0 l/m 0,3 km/h (0 Bft) NW 315 0 min -3,0 C -0,6 C 0,0 km/h (0 Bft)
09.01.2016 10:10 -1,1 C 21,3 C -0,1 C -0,3 C -0,3 C 0,8 C 87 % 90 % 21 % 1006,6 hPa 0,0 l/m 0,2 km/h (0 Bft) W-NW 292 0 min -3,0 C -0,3 C 0,0 km/h (0 Bft)
09.01.2016 10:15 -0,9 C 21,3 C -0,1 C -0,1 C -0,1 C 0,8 C 87 % 89 % 21 % 1006,6 hPa 0,0 l/m 0,3 km/h (0 Bft) W 270 0 min -2,8 C -0,1 C 0,0 km/h (0 Bft)
09.01.2016 10:20 -0,7 C 21,3 C 0,3 C 0,2 C 0,2 C 0,9 C 86 % 89 % 24 % 1006,6 hPa 0,0 l/m 0,3 km/h (0 Bft) W-SW 247 0 min -2,7 C 0,2 C 0,0 km/h (0 Bft)
09.01.2016 10:25 -0,5 C 21,3 C 0,4 C 0,3 C 0,3 C 0,8 C 86 % 89 % 21 % 1006,6 hPa 0,0 l/m 0,2 km/h (0 Bft) W 270 0 min -2,5 C 0,3 C 0,0 km/h (0 Bft)
09.01.2016 10:30 -0,3 C 21,3 C 0,4 C 0,5 C 0,5 C 0,8 C 85 % 89 % 21 % 1006,6 hPa 0,0 l/m 0,3 km/h (0 Bft) W 270 0 min -2,5 C 0,5 C 0,0 km/h (0 Bft)
09.01.2016 10:35 -0,2 C 21,3 C 0,5 C 0,7 C 0,7 C 0,9 C 84 % 89 % 24 % 1006,6 hPa 0,0 l/m 0,2 km/h (0 Bft) W 270 0 min -2,6 C 0,7 C 0,0 km/h (0 Bft)
09.01.2016 10:40 0,1 C 21,2 C 0,6 C 0,9 C 0,9 C 0,8 C 84 % 88 % 21 % 1006,6 hPa 0,0 l/m 0,0 km/h (0 Bft) N-NW 337 0 min -2,3 C 0,9 C 0,0 km/h (0 Bft)
09.01.2016 10:45 0,1 C 21,2 C 0,8 C 1,3 C 1,3 C 1,2 C 84 % 88 % 32 % 1006,6 hPa 0,0 l/m 0,0 km/h (0 Bft) W-SW 247 0 min -2,3 C 1,3 C 0,0 km/h (0 Bft)
09.01.2016 10:50 0,3 C 21,3 C 1,1 C 1,8 C 1,8 C 1,5 C 83 % 88 % 39 % 1007,0 hPa 0,0 l/m 0,0 km/h (0 Bft) W-SW 247 0 min -2,2 C 1,8 C 0,0 km/h (0 Bft)
09.01.2016 10:55 0,4 C 21,3 C 1,3 C 2,4 C 2,4 C 2,0 C 83 % 88 % 53 % 1007,0 hPa 0,0 l/m 0,0 km/h (0 Bft) W-SW 247 0 min -2,1 C 2,4 C 0,0 km/h (0 Bft)
09.01.2016 11:00 0,7 C 21,3 C 1,5 C 3,2 C 3,2 C 2,5 C 83 % 88 % 66 % 1007,0 hPa 0,0 l/m 0,0 km/h (0 Bft) S-SW 202 0 min -1,8 C 3,2 C 0,0 km/h (0 Bft)
09.01.2016 11:05 0,8 C 21,3 C 1,6 C 3,5 C 3,5 C 2,7 C 83 % 88 % 71 % 1007,0 hPa 0,0 l/m 0,0 km/h (0 Bft) W 270 0 min -1,8 C 3,5 C 0,0 km/h (0 Bft)
09.01.2016 11:10 1,1 C 21,3 C 1,7 C 3,9 C 3,9 C 2,8 C 82 % 88 % 74 % 1006,1 hPa 0,0 l/m 0,0 km/h (0 Bft) S-SW 202 0 min -1,6 C 3,9 C 0,0 km/h (0 Bft)
09.01.2016 11:15 1,3 C 21,3 C 1,8 C 4,1 C 4,1 C 2,8 C 82 % 87 % 74 % 1006,1 hPa 0,0 l/m 0,0 km/h (0 Bft) NW 315 0 min -1,4 C 4,1 C 0,0 km/h (0 Bft)
09.01.2016 11:20 1,5 C 21,3 C 2,0 C 4,5 C 4,5 C 3,0 C 82 % 87 % 79 % 1006,1 hPa 0,0 l/m 0,0 km/h (0 Bft) SW 225 0 min -1,2 C 4,5 C 0,0 km/h (0 Bft)
09.01.2016 11:25 1,6 C 21,3 C 2,1 C 4,7 C 4,7 C 3,1 C 81 % 87 % 82 % 1006,1 hPa 0,0 l/m 0,0 km/h (0 Bft) NO 45 0 min -1,3 C 4,7 C 0,0 km/h (0 Bft)
09.01.2016 11:30 1,9 C 21,3 C 2,2 C 5,0 C 5,0 C 3,1 C 81 % 87 % 82 % 1006,8 hPa 0,0 l/m 0,0 km/h (0 Bft) S-SW 202 0 min -1,0 C 5,0 C 0,0 km/h (0 Bft)
09.01.2016 11:35 2,1 C 21,3 C 2,3 C 5,1 C 5,1 C 3,0 C 81 % 86 % 79 % 1006,8 hPa 0,0 l/m 0,0 km/h (0 Bft) O-SO 112 0 min -0,8 C 5,1 C 0,0 km/h (0 Bft)
09.01.2016 11:40 2,3 C 21,3 C 2,3 C 5,3 C 5,3 C 3,0 C 80 % 86 % 79 % 1006,8 hPa 0,0 l/m 0,2 km/h (0 Bft) W-SW 247 0 min -0,8 C 5,3 C 0,0 km/h (0 Bft)
09.01.2016 11:45 2,4 C 21,3 C 2,3 C 5,3 C 5,3 C 2,9 C 80 % 86 % 76 % 1006,8 hPa 0,0 l/m 0,3 km/h (0 Bft) W-SW 247 0 min -0,7 C 5,3 C 0,0 km/h (0 Bft)
09.01.2016 11:50 2,4 C 21,3 C 2,3 C 5,2 C 5,2 C 2,8 C 79 % 86 % 74 % 1006,8 hPa 0,0 l/m 0,3 km/h (0 Bft) W-SW 247 0 min -0,9 C 5,2 C 0,0 km/h (0 Bft)
09.01.2016 11:55 2,5 C 21,3 C 2,3 C 5,2 C 5,2 C 2,7 C 79 % 86 % 71 % 1006,8 hPa 0,0 l/m 0,0 km/h (0 Bft) W-SW 247 0 min -0,8 C 5,2 C 0,0 km/h (0 Bft)
09.01.2016 12:00 2,7 C 21,3 C 2,4 C 5,3 C 5,3 C 2,6 C 78 % 86 % 68 % 1006,8 hPa 0,0 l/m 0,0 km/h (0 Bft) W-SW 247 0 min -0,7 C 5,3 C 0,0 km/h (0 Bft)
09.01.2016 12:05 2,7 C 21,3 C 2,4 C 5,3 C 5,3 C 2,6 C 78 % 86 % 68 % 1006,8 hPa 0,0 l/m 0,0 km/h (0 Bft) W-SW 247 0 min -0,7 C 5,3 C 0,0 km/h (0 Bft)
09.01.2016 12:10 2,8 C 21,2 C 2,7 C 5,3 C 5,3 C 2,5 C 78 % 85 % 66 % 1006,8 hPa 0,0 l/m 0,0 km/h (0 Bft) W-SW 247 0 min -0,6 C 5,3 C 0,0 km/h (0 Bft)
09.01.2016 12:15 2,9 C 21,2 C 2,7 C 5,5 C 5,5 C 2,6 C 78 % 85 % 68 % 1006,8 hPa 0,0 l/m 0,0 km/h (0 Bft) W-SW 247 0 min -0,5 C 5,5 C 0,0 km/h (0 Bft)
09.01.2016 12:20 3,1 C 21,2 C 2,8 C 5,7 C 5,7 C 2,6 C 78 % 85 % 68 % 1006,8 hPa 0,0 l/m 0,0 km/h (0 Bft) SW 225 0 min -0,4 C 5,7 C 0,0 km/h (0 Bft)
09.01.2016 12:25 3,2 C 21,2 C 2,8 C 5,7 C 5,7 C 2,5 C 78 % 85 % 66 % 1006,8 hPa 0,0 l/m 0,0 km/h (0 Bft) SW 225 0 min -0,3 C 5,7 C 0,0 km/h (0 Bft)
09.01.2016 12:30 3,2 C 21,3 C 2,8 C 5,7 C 5,7 C 2,5 C 78 % 85 % 66 % 1005,3 hPa 0,0 l/m 0,0 km/h (0 Bft) SW 225 0 min -0,3 C 5,7 C 0,0 km/h (0 Bft)
09.01.2016 12:35 3,3 C 21,3 C 2,9 C 5,7 C 5,7 C 2,4 C 77 % 84 % 63 % 1005,3 hPa 0,0 l/m 0,0 km/h (0 Bft) SW 225 0 min -0,3 C 5,7 C 0,0 km/h (0 Bft)
09.01.2016 12:41 3,4 C 21,3 C 2,9 C 5,9 C 5,9 C 2,5 C 77 % 84 % 66 % 1005,3 hPa 0,0 l/m 0,0 km/h (0 Bft) N 0 0 min -0,2 C 5,9 C 0,0 km/h (0 Bft)
09.01.2016 12:50 3,7 C 21,3 C 3,1 C 6,0 C 6,0 C 2,3 C 77 % 85 % 61 % 1005,6 hPa 0,0 l/m 0,0 km/h (0 Bft) W-SW 247 0 min 0,1 C 6,0 C 0,0 km/h (0 Bft)
09.01.2016 12:55 3,7 C 21,3 C 3,1 C 6,1 C 6,1 C 2,4 C 77 % 85 % 63 % 1005,6 hPa 0,0 l/m 0,0 km/h (0 Bft) SW 225 0 min 0,1 C 6,1 C 0,0 km/h (0 Bft)
09.01.2016 13:00 3,9 C 21,3 C 2,9 C 6,1 C 6,1 C 2,2 C 77 % 84 % 58 % 1005,6 hPa 0,0 l/m 0,0 km/h (0 Bft) W-SW 247 0 min 0,2 C 6,1 C 0,0 km/h (0 Bft)
09.01.2016 13:05 3,9 C 21,3 C 2,9 C 6,2 C 6,2 C 2,3 C 77 % 84 % 61 % 1005,6 hPa 0,0 l/m 0,0 km/h (0 Bft) SW 225 0 min 0,2 C 6,2 C 0,0 km/h (0 Bft)
09.01.2016 13:10 4,0 C 21,3 C 3,1 C 6,2 C 6,2 C 2,2 C 76 % 84 % 58 % 1006,2 hPa 0,0 l/m 0,0 km/h (0 Bft) SW 225 0 min 0,2 C 6,2 C 0,0 km/h (0 Bft)
09.01.2016 13:15 4,1 C 21,3 C 3,1 C 6,1 C 6,1 C 2,0 C 76 % 84 % 53 % 1006,2 hPa 0,0 l/m 0,0 km/h (0 Bft) SW 225 0 min 0,3 C 6,1 C 0,0 km/h (0 Bft)
09.01.2016 13:20 4,3 C 21,3 C 3,0 C 6,1 C 6,1 C 1,8 C 76 % 84 % 47 % 1006,2 hPa 0,0 l/m 0,0 km/h (0 Bft) W-SW 247 0 min 0,5 C 6,1 C 0,0 km/h (0 Bft)
09.01.2016 13:25 4,3 C 21,3 C 3,1 C 5,9 C 5,9 C 1,6 C 75 % 84 % 42 % 1006,2 hPa 0,0 l/m 0,0 km/h (0 Bft) W-SW 247 0 min 0,3 C 5,9 C 0,0 km/h (0 Bft)
09.01.2016 13:30 4,3 C 21,3 C 2,8 C 5,7 C 5,7 C 1,4 C 75 % 84 % 37 % 1005,4 hPa 0,0 l/m 0,0 km/h (0 Bft) W-SW 247 0 min 0,3 C 5,7 C 0,0 km/h (0 Bft)
09.01.2016 13:35 4,4 C 21,3 C 2,8 C 5,7 C 5,7 C 1,3 C 75 % 84 % 34 % 1005,4 hPa 0,0 l/m 0,0 km/h (0 Bft) W-SW 247 0 min 0,4 C 5,7 C 0,0 km/h (0 Bft)
09.01.2016 13:40 4,4 C 21,3 C 2,9 C 5,7 C 5,7 C 1,3 C 75 % 84 % 34 % 1005,4 hPa 0,0 l/m 0,0 km/h (0 Bft) W-SW 247 0 min 0,4 C 5,7 C 0,0 km/h (0 Bft)
09.01.2016 13:45 4,5 C 21,3 C 3,1 C 5,7 C 5,7 C 1,2 C 75 % 84 % 32 % 1005,4 hPa 0,0 l/m 0,0 km/h (0 Bft) W-SW 247 0 min 0,5 C 5,7 C 0,0 km/h (0 Bft)
09.01.2016 13:50 4,7 C 21,3 C 3,0 C 5,7 C 5,7 C 1,0 C 75 % 84 % 26 % 1005,9 hPa 0,0 l/m 0,0 km/h (0 Bft) S 180 0 min 0,7 C 5,7 C 0,0 km/h (0 Bft)
09.01.2016 13:55 4,6 C 21,3 C 3,1 C 5,6 C 5,6 C 1,0 C 74 % 84 % 26 % 1005,9 hPa 0,0 l/m 0,0 km/h (0 Bft) S-SW 202 0 min 0,4 C 5,6 C 0,0 km/h (0 Bft)
09.01.2016 14:00 4,7 C 21,3 C 3,1 C 5,5 C 5,5 C 0,8 C 74 % 84 % 21 % 1005,9 hPa 0,0 l/m 0,0 km/h (0 Bft) S-SW 202 0 min 0,5 C 5,5 C 0,0 km/h (0 Bft)
09.01.2016 14:05 4,7 C 21,3 C 3,1 C 5,4 C 5,4 C 0,7 C 74 % 84 % 18 % 1005,9 hPa 0,0 l/m 0,0 km/h (0 Bft) S-SW 202 0 min 0,5 C 5,4 C 0,0 km/h (0 Bft)
09.01.2016 14:10 4,7 C 21,3 C 3,1 C 5,4 C 5,4 C 0,7 C 74 % 84 % 18 % 1006,1 hPa 0,0 l/m 0,0 km/h (0 Bft) W-SW 247 0 min 0,5 C 5,4 C 0,0 km/h (0 Bft)
09.01.2016 14:15 4,7 C 21,3 C 3,1 C 5,3 C 5,3 C 0,6 C 74 % 83 % 16 % 1006,1 hPa 0,0 l/m 0,0 km/h (0 Bft) W-SW 247 0 min 0,5 C 5,3 C 0,0 km/h (0 Bft)
09.01.2016 14:20 4,6 C 21,4 C 3,1 C 5,2 C 5,2 C 0,6 C 74 % 83 % 16 % 1006,1 hPa 0,0 l/m 0,0 km/h (0 Bft) W-SW 247 0 min 0,4 C 5,2 C 0,0 km/h (0 Bft)
09.01.2016 14:25 4,5 C 21,4 C 3,1 C 5,1 C 5,1 C 0,6 C 73 % 83 % 16 % 1006,1 hPa 0,0 l/m 0,0 km/h (0 Bft) W-SW 247 0 min 0,1 C 5,1 C 0,0 km/h (0 Bft)
09.01.2016 14:30 4,5 C 21,4 C 2,8 C 5,0 C 5,0 C 0,5 C 73 % 83 % 13 % 1005,4 hPa 0,0 l/m 0,0 km/h (0 Bft) W-SW 247 0 min 0,1 C 5,0 C 0,0 km/h (0 Bft)
09.01.2016 14:35 4,5 C 21,4 C 2,8 C 4,9 C 4,9 C 0,4 C 73 % 84 % 11 % 1005,4 hPa 0,0 l/m 0,0 km/h (0 Bft) W-SW 247 0 min 0,1 C 4,9 C 0,0 km/h (0 Bft)
09.01.2016 14:40 4,5 C 21,4 C 2,8 C 4,7 C 4,7 C 0,2 C 73 % 84 % 5 % 1005,4 hPa 0,0 l/m 0,0 km/h (0 Bft) W-SW 247 0 min 0,1 C 4,7 C 0,0 km/h (0 Bft)
09.01.2016 14:45 4,4 C 21,4 C 2,7 C 4,6 C 4,6 C 0,2 C 74 % 84 % 5 % 1005,4 hPa 0,0 l/m 0,0 km/h (0 Bft) W-SW 247 0 min 0,2 C 4,6 C 0,0 km/h (0 Bft)
09.01.2016 14:50 4,4 C 21,4 C 2,7 C 4,5 C 4,5 C 0,1 C 74 % 84 % 3 % 1005,4 hPa 0,0 l/m 0,0 km/h (0 Bft) W-SW 247 0 min 0,2 C 4,5 C 0,0 km/h (0 Bft)
09.01.2016 14:55 4,3 C 21,4 C 2,7 C 4,5 C 4,5 C 0,2 C 75 % 84 % 5 % 1005,4 hPa 0,0 l/m 0,0 km/h (0 Bft) W-SW 247 0 min 0,3 C 4,5 C 0,0 km/h (0 Bft)
09.01.2016 15:00 4,1 C 21,4 C 2,7 C 4,3 C 4,3 C 0,2 C 75 % 84 % 5 % 1005,4 hPa 0,0 l/m 0,0 km/h (0 Bft) W-SW 247 0 min 0,1 C 4,3 C 0,0 km/h (0 Bft)
09.01.2016 15:05 4,0 C 21,4 C 2,5 C 4,1 C 4,1 C 0,1 C 75 % 85 % 3 % 1005,4 hPa 0,0 l/m 0,0 km/h (0 Bft) NW 315 0 min -0,0 C 4,1 C 0,0 km/h (0 Bft)
09.01.2016 15:10 3,9 C 21,4 C 2,4 C 3,9 C 3,9 C 0,0 C 75 % 85 % 0 % 1005,4 hPa 0,0 l/m 0,0 km/h (0 Bft) W-NW 292 0 min -0,1 C 3,9 C 0,0 km/h (0 Bft)
09.01.2016 15:15 3,8 C 21,4 C 2,4 C 3,7 C 3,6 C 0,0 C 76 % 85 % 0 % 1005,4 hPa 0,0 l/m 0,0 km/h (0 Bft) W-NW 292 0 min -0,0 C 3,6 C 0,0 km/h (0 Bft)
09.01.2016 15:20 3,7 C 21,5 C 2,2 C 3,6 C 3,4 C 0,0 C 76 % 85 % 0 % 1005,4 hPa 0,0 l/m 0,0 km/h (0 Bft) O-NO 67 0 min -0,1 C 3,4 C 0,0 km/h (0 Bft)
09.01.2016 15:25 3,5 C 21,5 C 2,1 C 3,4 C 3,3 C 0,0 C 76 % 85 % 0 % 1005,4 hPa 0,0 l/m 0,0 km/h (0 Bft) O-NO 67 0 min -0,3 C 3,3 C 0,0 km/h (0 Bft)
09.01.2016 15:30 3,2 C 21,5 C 2,0 C 3,2 C 3,1 C 0,0 C 77 % 86 % 0 % 1005,6 hPa 0,0 l/m 0,0 km/h (0 Bft) O-NO 67 0 min -0,4 C 3,1 C 0,0 km/h (0 Bft)
09.01.2016 15:35 3,0 C 21,5 C 2,0 C 3,0 C 3,0 C 0,0 C 77 % 86 % 0 % 1005,6 hPa 0,0 l/m 0,0 km/h (0 Bft) NO 45 0 min -0,6 C 3,0 C 0,0 km/h (0 Bft)
09.01.2016 15:41 2,9 C 21,5 C 1,8 C 2,8 C 2,5 C 0,0 C 77 % 86 % 0 % 1005,6 hPa 0,0 l/m 0,0 km/h (0 Bft) N 0 0 min -0,7 C 2,5 C 0,0 km/h (0 Bft)
09.01.2016 15:50 2,5 C 21,6 C 1,5 C 2,3 C 1,9 C 0,0 C 78 % 86 % 0 % 1005,5 hPa 0,0 l/m 0,0 km/h (0 Bft) W-SW 247 0 min -0,9 C 1,9 C 0,0 km/h (0 Bft)
09.01.2016 15:55 2,4 C 21,6 C 1,5 C 2,2 C 1,7 C 0,0 C 78 % 86 % 0 % 1005,5 hPa 0,0 l/m 0,0 km/h (0 Bft) W 270 0 min -1,0 C 1,7 C 0,0 km/h (0 Bft)
09.01.2016 16:00 2,3 C 21,6 C 1,2 C 2,0 C 1,3 C 0,0 C 78 % 86 % 0 % 1005,5 hPa 0,0 l/m 0,0 km/h (0 Bft) N 360 0 min -1,1 C 1,3 C 0,0 km/h (0 Bft)
09.01.2016 16:05 2,1 C 21,6 C 1,1 C 1,8 C 1,2 C 0,0 C 78 % 87 % 0 % 1005,5 hPa 0,0 l/m 0,0 km/h (0 Bft) NO 45 0 min -1,3 C 1,2 C 0,0 km/h (0 Bft)
09.01.2016 16:10 1,7 C 21,7 C 0,9 C 1,5 C 1,0 C 0,0 C 79 % 87 % 0 % 1006,0 hPa 0,0 l/m 0,0 km/h (0 Bft) O-NO 67 0 min -1,5 C 1,0 C 0,0 km/h (0 Bft)
09.01.2016 16:15 1,6 C 21,7 C 0,7 C 1,3 C 0,7 C 0,0 C 79 % 87 % 0 % 1006,0 hPa 0,0 l/m 0,0 km/h (0 Bft) O-NO 67 0 min -1,6 C 0,7 C 0,0 km/h (0 Bft)
09.01.2016 16:20 1,5 C 21,7 C 0,5 C 1,2 C 0,6 C 0,0 C 79 % 87 % 0 % 1006,0 hPa 0,0 l/m 0,0 km/h (0 Bft) O-NO 67 0 min -1,7 C 0,6 C 0,0 km/h (0 Bft)
09.01.2016 16:25 1,3 C 21,7 C 0,3 C 1,0 C 0,4 C 0,0 C 80 % 87 % 0 % 1006,0 hPa 0,0 l/m 0,0 km/h (0 Bft) O-NO 67 0 min -1,8 C 0,4 C 0,0 km/h (0 Bft)
09.01.2016 16:30 1,1 C 21,7 C 0,0 C 0,8 C 0,2 C 0,0 C 80 % 87 % 0 % 1005,8 hPa 0,0 l/m 0,0 km/h (0 Bft) O-NO 67 0 min -2,0 C 0,2 C 0,0 km/h (0 Bft)
09.01.2016 16:35 0,8 C 21,7 C 0,0 C 0,6 C 0,1 C 0,0 C 80 % 88 % 0 % 1005,8 hPa 0,0 l/m 0,0 km/h (0 Bft) O-NO 67 0 min -2,2 C 0,1 C 0,0 km/h (0 Bft)
09.01.2016 16:40 0,7 C 21,7 C -0,1 C 0,4 C -0,2 C 0,0 C 80 % 88 % 0 % 1005,8 hPa 0,0 l/m 0,0 km/h (0 Bft) O-NO 67 0 min -2,3 C -0,2 C 0,0 km/h (0 Bft)
09.01.2016 16:45 0,6 C 21,7 C -0,3 C 0,3 C -0,4 C 0,0 C 80 % 88 % 0 % 1005,8 hPa 0,0 l/m 0,0 km/h (0 Bft) O-NO 67 0 min -2,4 C -0,4 C 0,0 km/h (0 Bft)
09.01.2016 16:50 0,3 C 21,7 C -0,5 C 0,0 C -0,7 C 0,0 C 81 % 88 % 0 % 1005,6 hPa 0,0 l/m 0,0 km/h (0 Bft) O-NO 67 0 min -2,6 C -0,7 C 0,0 km/h (0 Bft)
09.01.2016 16:55 0,3 C 21,7 C -0,5 C 0,0 C -0,7 C 0,0 C 81 % 88 % 0 % 1005,6 hPa 0,0 l/m 0,0 km/h (0 Bft) O-NO 67 0 min -2,6 C -0,7 C 0,0 km/h (0 Bft)
09.01.2016 17:00 0,1 C 21,7 C -0,7 C -0,3 C -1,0 C 0,0 C 81 % 88 % 0 % 1005,6 hPa 0,0 l/m 0,0 km/h (0 Bft) O-NO 67 0 min -2,8 C -1,0 C 0,0 km/h (0 Bft)
09.01.2016 17:05 -0,1 C 21,7 C -0,8 C -0,5 C -1,3 C 0,0 C 81 % 88 % 0 % 1005,6 hPa 0,0 l/m 0,0 km/h (0 Bft) W-SW 247 0 min -3,0 C -1,3 C 0,0 km/h (0 Bft)
09.01.2016 17:10 -0,4 C 21,7 C -0,9 C -0,8 C -1,5 C 0,0 C 81 % 89 % 0 % 1005,6 hPa 0,0 l/m 0,0 km/h (0 Bft) W-SW 247 0 min -3,3 C -1,5 C 0,0 km/h (0 Bft)
09.01.2016 17:15 -0,5 C 21,7 C -0,9 C -0,9 C -1,6 C 0,0 C 81 % 89 % 0 % 1005,6 hPa 0,0 l/m 0,0 km/h (0 Bft) W-SW 247 0 min -3,3 C -1,6 C 0,0 km/h (0 Bft)
09.01.2016 17:20 -0,7 C 21,8 C -1,2 C -1,0 C -1,7 C 0,0 C 81 % 89 % 0 % 1005,6 hPa 0,0 l/m 0,0 km/h (0 Bft) S 180 0 min -3,5 C -1,7 C 0,0 km/h (0 Bft)
09.01.2016 17:25 -0,9 C 21,9 C -1,3 C -1,3 C -2,0 C 0,0 C 81 % 89 % 0 % 1005,6 hPa 0,0 l/m 0,0 km/h (0 Bft) S 180 0 min -3,7 C -2,0 C 0,0 km/h (0 Bft)
09.01.2016 17:30 -0,9 C 21,9 C -1,3 C -1,3 C -2,2 C 0,0 C 81 % 89 % 0 % 1005,9 hPa 0,0 l/m 0,0 km/h (0 Bft) S 180 0 min -3,7 C -2,2 C 0,0 km/h (0 Bft)
09.01.2016 17:35 -1,1 C 21,9 C -1,5 C -1,5 C -2,3 C 0,0 C 81 % 89 % 0 % 1005,9 hPa 0,0 l/m 0,0 km/h (0 Bft) S 180 0 min -3,9 C -2,3 C 0,0 km/h (0 Bft)
09.01.2016 17:40 -1,4 C 21,9 C -1,5 C -1,7 C -2,2 C 0,0 C 82 % 89 % 0 % 1005,9 hPa 0,0 l/m 0,0 km/h (0 Bft) S 180 0 min -4,1 C -2,2 C 0,0 km/h (0 Bft)
09.01.2016 17:45 -1,5 C 21,9 C -1,7 C -1,8 C -2,3 C 0,0 C 82 % 90 % 0 % 1005,9 hPa 0,0 l/m 0,0 km/h (0 Bft) SW 225 0 min -4,2 C -2,3 C 0,0 km/h (0 Bft)
09.01.2016 17:50 -1,5 C 21,9 C -1,7 C -1,8 C -2,3 C 0,0 C 83 % 90 % 0 % 1005,9 hPa 0,0 l/m 0,0 km/h (0 Bft) NW 315 0 min -4,0 C -2,3 C 0,0 km/h (0 Bft)
09.01.2016 17:55 -1,7 C 21,9 C -1,7 C -1,9 C -2,4 C 0,0 C 83 % 90 % 0 % 1005,9 hPa 0,0 l/m 0,0 km/h (0 Bft) N-NW 337 0 min -4,2 C -2,4 C 0,0 km/h (0 Bft)
09.01.2016 18:00 -1,7 C 21,9 C -1,9 C -2,0 C -2,5 C 0,0 C 83 % 89 % 0 % 1005,9 hPa 0,0 l/m 0,0 km/h (0 Bft) NW 315 0 min -4,2 C -2,5 C 0,0 km/h (0 Bft)
09.01.2016 18:05 -2,0 C 21,9 C -1,9 C -2,2 C -2,6 C 0,0 C 83 % 89 % 0 % 1005,9 hPa 0,0 l/m 0,0 km/h (0 Bft) NW 315 0 min -4,5 C -2,6 C 0,0 km/h (0 Bft)
09.01.2016 18:10 -2,1 C 21,9 C -2,0 C -2,3 C -2,6 C 0,0 C 83 % 90 % 0 % 1005,9 hPa 0,0 l/m 0,0 km/h (0 Bft) NW 315 0 min -4,6 C -2,6 C 0,0 km/h (0 Bft)
09.01.2016 18:15 -2,1 C 21,9 C -2,1 C -2,3 C -2,6 C 0,0 C 83 % 90 % 0 % 1005,9 hPa 0,0 l/m 0,0 km/h (0 Bft) NW 315 0 min -4,6 C -2,6 C 0,0 km/h (0 Bft)
09.01.2016 18:20 -2,4 C 21,9 C -2,1 C -2,5 C -2,8 C 0,0 C 83 % 90 % 0 % 1005,9 hPa 0,0 l/m 0,0 km/h (0 Bft) NW 315 0 min -4,9 C -2,8 C 0,0 km/h (0 Bft)
09.01.2016 18:25 -2,5 C 21,9 C -2,1 C -2,7 C -3,0 C 0,0 C 83 % 90 % 0 % 1005,9 hPa 0,0 l/m 0,0 km/h (0 Bft) NW 315 0 min -5,0 C -3,0 C 0,0 km/h (0 Bft)
09.01.2016 18:30 -2,5 C 21,9 C -2,1 C -2,7 C -3,0 C 0,0 C 84 % 90 % 0 % 1005,6 hPa 0,0 l/m 0,0 km/h (0 Bft) N-NO 22 0 min -4,8 C -3,0 C 0,0 km/h (0 Bft)
09.01.2016 18:35 -2,5 C 21,9 C -2,1 C -2,6 C -2,8 C 0,0 C 84 % 90 % 0 % 1005,6 hPa 0,0 l/m 0,0 km/h (0 Bft) N-NO 22 0 min -4,8 C -2,8 C 0,0 km/h (0 Bft)
09.01.2016 18:41 -2,7 C 21,9 C -2,4 C -2,7 C -2,8 C 0,0 C 84 % 90 % 0 % 1005,6 hPa 0,0 l/m 0,0 km/h (0 Bft) N 0 0 min -5,0 C -2,8 C 0,0 km/h (0 Bft)
09.01.2016 18:50 -2,9 C 21,9 C -2,5 C -2,9 C -2,9 C 0,0 C 84 % 90 % 0 % 1005,6 hPa 0,0 l/m 0,0 km/h (0 Bft) N 360 0 min -5,2 C -2,9 C 0,0 km/h (0 Bft)
09.01.2016 18:55 -2,9 C 21,9 C -2,5 C -3,0 C -3,1 C 0,0 C 84 % 90 % 0 % 1005,6 hPa 0,0 l/m 0,0 km/h (0 Bft) N 360 0 min -5,2 C -3,1 C 0,0 km/h (0 Bft)
09.01.2016 19:00 -3,0 C 21,9 C -2,4 C -3,1 C -3,4 C 0,0 C 84 % 91 % 0 % 1005,6 hPa 0,0 l/m 0,0 km/h (0 Bft) N 360 0 min -5,3 C -3,4 C 0,0 km/h (0 Bft)
09.01.2016 19:05 -3,1 C 21,9 C -2,3 C -3,2 C -3,5 C 0,0 C 84 % 91 % 0 % 1005,6 hPa 0,0 l/m 0,0 km/h (0 Bft) N 360 0 min -5,4 C -3,5 C 0,0 km/h (0 Bft)
09.01.2016 19:10 -3,2 C 21,9 C -2,5 C -3,3 C -3,6 C 0,0 C 84 % 91 % 0 % 1005,2 hPa 0,0 l/m 0,0 km/h (0 Bft) N 360 0 min -5,5 C -3,6 C 0,0 km/h (0 Bft)
09.01.2016 19:15 -3,1 C 21,9 C -2,5 C -3,3 C -3,6 C 0,0 C 84 % 91 % 0 % 1005,2 hPa 0,0 l/m 0,0 km/h (0 Bft) N-NO 22 0 min -5,4 C -3,6 C 0,0 km/h (0 Bft)
09.01.2016 19:20 -3,3 C 21,9 C -2,7 C -3,4 C -3,5 C 0,0 C 84 % 91 % 0 % 1005,2 hPa 0,0 l/m 0,0 km/h (0 Bft) N-NO 22 0 min -5,6 C -3,5 C 0,0 km/h (0 Bft)
09.01.2016 19:25 -3,3 C 21,9 C -2,7 C -3,4 C -3,5 C 0,0 C 85 % 91 % 0 % 1005,2 hPa 0,0 l/m 0,0 km/h (0 Bft) N 360 0 min -5,5 C -3,5 C 0,0 km/h (0 Bft)
09.01.2016 19:30 -3,3 C 21,9 C -2,7 C -3,4 C -3,7 C 0,0 C 85 % 91 % 0 % 1005,2 hPa 0,0 l/m 0,0 km/h (0 Bft) N 360 0 min -5,5 C -3,7 C 0,0 km/h (0 Bft)
09.01.2016 19:35 -3,5 C 21,9 C -2,7 C -3,6 C -3,8 C 0,0 C 85 % 91 % 0 % 1005,2 hPa 0,0 l/m 0,0 km/h (0 Bft) W 270 0 min -5,6 C -3,8 C 0,0 km/h (0 Bft)
09.01.2016 19:40 -3,5 C 21,9 C -2,7 C -3,6 C -3,7 C 0,0 C 85 % 91 % 0 % 1005,2 hPa 0,0 l/m 0,0 km/h (0 Bft) W 270 0 min -5,6 C -3,7 C 0,0 km/h (0 Bft)
09.01.2016 19:45 -3,5 C 21,9 C -2,8 C -3,6 C -3,7 C 0,0 C 85 % 91 % 0 % 1005,2 hPa 0,0 l/m 0,0 km/h (0 Bft) W 270 0 min -5,6 C -3,7 C 0,0 km/h (0 Bft)
09.01.2016 19:50 -3,7 C 21,9 C -2,9 C -3,7 C -3,8 C 0,0 C 85 % 90 % 0 % 1005,2 hPa 0,0 l/m 0,0 km/h (0 Bft) W 270 0 min -5,8 C -3,8 C 0,0 km/h (0 Bft)
09.01.2016 19:55 -3,7 C 21,9 C -2,9 C -3,8 C -4,0 C 0,0 C 85 % 90 % 0 % 1005,2 hPa 0,0 l/m 0,0 km/h (0 Bft) W 270 0 min -5,8 C -4,0 C 0,0 km/h (0 Bft)
09.01.2016 20:00 -3,7 C 21,9 C -2,9 C -3,8 C -4,0 C 0,0 C 85 % 90 % 0 % 1005,2 hPa 0,0 l/m 0,0 km/h (0 Bft) W 270 0 min -5,8 C -4,0 C 0,0 km/h (0 Bft)
09.01.2016 20:05 -3,9 C 21,9 C -3,1 C -4,0 C -4,2 C 0,0 C 85 % 90 % 0 % 1005,2 hPa 0,0 l/m 0,0 km/h (0 Bft) W 270 0 min -6,0 C -4,2 C 0,0 km/h (0 Bft)
09.01.2016 20:10 -4,1 C 21,8 C -3,1 C -4,2 C -4,3 C 0,0 C 85 % 90 % 0 % 1004,9 hPa 0,0 l/m 0,0 km/h (0 Bft) W 270 0 min -6,2 C -4,3 C 0,0 km/h (0 Bft)
09.01.2016 20:15 -4,1 C 21,9 C -2,9 C -4,1 C -4,2 C 0,0 C 85 % 91 % 0 % 1004,9 hPa 0,0 l/m 0,0 km/h (0 Bft) W 270 0 min -6,2 C -4,2 C 0,0 km/h (0 Bft)
09.01.2016 20:20 -4,1 C 21,9 C -2,9 C -4,1 C -4,1 C 0,0 C 86 % 91 % 0 % 1004,9 hPa 0,0 l/m 0,0 km/h (0 Bft) W 270 0 min -6,1 C -4,1 C 0,0 km/h (0 Bft)
09.01.2016 20:25 -4,1 C 21,9 C -3,1 C -4,1 C -4,1 C 0,0 C 86 % 90 % 0 % 1004,9 hPa 0,0 l/m 0,0 km/h (0 Bft) W 270 0 min -6,1 C -4,1 C 0,0 km/h (0 Bft)
09.01.2016 20:30 -4,1 C 21,9 C -3,2 C -4,0 C -4,0 C 0,1 C 86 % 91 % 0 % 1005,1 hPa 0,0 l/m 0,0 km/h (0 Bft) W 270 0 min -6,1 C -4,0 C 0,0 km/h (0 Bft)
09.01.2016 20:35 -4,1 C 22,0 C -3,1 C -4,0 C -4,0 C 0,1 C 86 % 91 % 0 % 1005,1 hPa 0,0 l/m 0,0 km/h (0 Bft) W 270 0 min -6,1 C -4,0 C 0,0 km/h (0 Bft)
09.01.2016 20:40 -4,1 C 21,9 C -3,1 C -4,0 C -4,0 C 0,1 C 86 % 91 % 0 % 1005,1 hPa 0,0 l/m 0,0 km/h (0 Bft) W 270 0 min -6,1 C -4,0 C 0,0 km/h (0 Bft)
09.01.2016 20:45 -4,2 C 21,9 C -3,2 C -4,1 C -4,1 C 0,1 C 86 % 91 % 0 % 1005,1 hPa 0,0 l/m 0,0 km/h (0 Bft) W 270 0 min -6,2 C -4,1 C 0,0 km/h (0 Bft)
09.01.2016 20:50 -4,1 C 21,9 C -3,3 C -4,1 C -4,1 C 0,0 C 86 % 91 % 0 % 1005,1 hPa 0,0 l/m 0,0 km/h (0 Bft) W 270 0 min -6,1 C -4,1 C 0,0 km/h (0 Bft)
09.01.2016 20:55 -4,1 C 21,9 C -3,3 C -4,0 C -4,0 C 0,1 C 86 % 91 % 0 % 1005,1 hPa 0,0 l/m 0,0 km/h (0 Bft) W 270 0 min -6,1 C -4,0 C 0,0 km/h (0 Bft)
09.01.2016 21:00 -4,1 C 21,9 C -3,3 C -3,8 C -3,8 C 0,3 C 86 % 91 % 0 % 1005,1 hPa 0,0 l/m 0,0 km/h (0 Bft) W 270 0 min -6,1 C -3,8 C 0,0 km/h (0 Bft)
09.01.2016 21:05 -4,1 C 21,9 C -3,3 C -3,8 C -3,8 C 0,3 C 86 % 91 % 0 % 1005,1 hPa 0,0 l/m 0,0 km/h (0 Bft) W 270 0 min -6,1 C -3,8 C 0,0 km/h (0 Bft)
09.01.2016 21:10 -4,1 C 21,9 C -3,1 C -3,8 C -3,8 C 0,3 C 86 % 91 % 0 % 1005,5 hPa 0,0 l/m 0,0 km/h (0 Bft) W 270 0 min -6,1 C -3,8 C 0,0 km/h (0 Bft)
09.01.2016 21:15 -4,1 C 21,9 C -3,2 C -3,8 C -3,8 C 0,3 C 87 % 91 % 0 % 1005,5 hPa 0,0 l/m 0,0 km/h (0 Bft) W 270 0 min -5,9 C -3,8 C 0,0 km/h (0 Bft)
09.01.2016 21:20 -4,1 C 21,9 C -3,3 C -3,8 C -3,8 C 0,3 C 87 % 91 % 0 % 1005,5 hPa 0,0 l/m 0,0 km/h (0 Bft) W 270 0 min -5,9 C -3,8 C 0,0 km/h (0 Bft)
09.01.2016 21:25 -4,1 C 21,9 C -3,3 C -4,0 C -4,0 C 0,1 C 86 % 91 % 0 % 1005,5 hPa 0,0 l/m 0,0 km/h (0 Bft) W 270 0 min -6,1 C -4,0 C 0,0 km/h (0 Bft)
09.01.2016 21:30 -4,1 C 21,9 C -3,3 C -4,0 C -4,0 C 0,1 C 87 % 91 % 0 % 1004,7 hPa 0,0 l/m 0,0 km/h (0 Bft) W 270 0 min -5,9 C -4,0 C 0,0 km/h (0 Bft)
09.01.2016 21:35 -4,1 C 21,9 C -3,3 C -4,0 C -4,0 C 0,1 C 87 % 91 % 0 % 1004,7 hPa 0,0 l/m 0,0 km/h (0 Bft) W 270 0 min -5,9 C -4,0 C 0,0 km/h (0 Bft)
09.01.2016 21:41 -4,1 C 21,9 C -3,3 C -4,1 C -4,1 C 0,0 C 87 % 91 % 0 % 1004,7 hPa 0,0 l/m 0,0 km/h (0 Bft) N 0 0 min -5,9 C -4,1 C 0,0 km/h (0 Bft)
09.01.2016 21:50 -4,3 C 21,9 C -3,3 C -4,3 C -4,3 C 0,0 C 87 % 91 % 0 % 1004,6 hPa 0,0 l/m 0,0 km/h (0 Bft) S 180 0 min -6,1 C -4,3 C 0,0 km/h (0 Bft)
09.01.2016 21:55 -4,3 C 21,9 C -3,3 C -4,3 C -4,3 C 0,0 C 87 % 91 % 0 % 1004,6 hPa 0,0 l/m 0,0 km/h (0 Bft) S 180 0 min -6,1 C -4,3 C 0,0 km/h (0 Bft)
09.01.2016 22:00 -4,4 C 21,9 C -3,3 C -4,3 C -4,3 C 0,1 C 87 % 91 % 0 % 1004,6 hPa 0,0 l/m 0,0 km/h (0 Bft) S 180 0 min -6,2 C -4,3 C 0,0 km/h (0 Bft)
09.01.2016 22:05 -4,5 C 21,8 C -3,5 C -4,4 C -4,4 C 0,1 C 87 % 91 % 0 % 1004,6 hPa 0,0 l/m 0,0 km/h (0 Bft) SW 225 0 min -6,3 C -4,4 C 0,0 km/h (0 Bft)
09.01.2016 22:10 -4,4 C 21,8 C -3,3 C -4,4 C -4,4 C 0,0 C 87 % 91 % 0 % 1004,6 hPa 0,0 l/m 0,0 km/h (0 Bft) W-SW 247 0 min -6,2 C -4,4 C 0,0 km/h (0 Bft)
09.01.2016 22:15 -4,3 C 21,8 C -3,3 C -4,3 C -4,4 C 0,0 C 87 % 91 % 0 % 1004,6 hPa 0,0 l/m 0,0 km/h (0 Bft) W-SW 247 0 min -6,1 C -4,4 C 0,0 km/h (0 Bft)
09.01.2016 22:20 -4,3 C 21,8 C -3,3 C -4,2 C -4,2 C 0,1 C 87 % 91 % 0 % 1004,6 hPa 0,0 l/m 0,0 km/h (0 Bft) O-NO 67 0 min -6,1 C -4,2 C 0,0 km/h (0 Bft)
09.01.2016 22:25 -4,3 C 21,9 C -3,6 C -4,0 C -4,0 C 0,3 C 87 % 91 % 0 % 1004,6 hPa 0,0 l/m 0,0 km/h (0 Bft) O-NO 67 0 min -6,1 C -4,0 C 0,0 km/h (0 Bft)
09.01.2016 22:30 -4,3 C 21,8 C -3,5 C -4,0 C -4,0 C 0,3 C 87 % 91 % 0 % 1004,8 hPa 0,0 l/m 0,0 km/h (0 Bft) O-NO 67 0 min -6,1 C -4,0 C 0,0 km/h (0 Bft)
09.01.2016 22:35 -4,4 C 21,8 C -3,6 C -4,1 C -4,1 C 0,3 C 87 % 91 % 0 % 1004,8 hPa 0,0 l/m 0,0 km/h (0 Bft) O-NO 67 0 min -6,2 C -4,1 C 0,0 km/h (0 Bft)
09.01.2016 22:40 -4,4 C 21,9 C -3,5 C -4,1 C -4,1 C 0,3 C 87 % 91 % 0 % 1004,8 hPa 0,0 l/m 0,0 km/h (0 Bft) NW 315 0 min -6,2 C -4,1 C 0,0 km/h (0 Bft)
09.01.2016 22:45 -4,4 C 21,9 C -3,6 C -4,0 C -4,0 C 0,4 C 87 % 91 % 0 % 1004,8 hPa 0,0 l/m 0,0 km/h (0 Bft) O-NO 67 0 min -6,2 C -4,0 C 0,0 km/h (0 Bft)
09.01.2016 22:50 -4,1 C 21,8 C -3,5 C -3,9 C -3,9 C 0,2 C 88 % 91 % 0 % 1004,4 hPa 0,0 l/m 0,0 km/h (0 Bft) O-NO 67 0 min -5,8 C -3,9 C 0,0 km/h (0 Bft)
09.01.2016 22:55 -4,1 C 21,8 C -3,7 C -3,9 C -3,9 C 0,2 C 88 % 91 % 0 % 1004,4 hPa 0,0 l/m 0,0 km/h (0 Bft) O-NO 67 0 min -5,8 C -3,9 C 0,0 km/h (0 Bft)
09.01.2016 23:00 -4,3 C 21,8 C -3,7 C -4,0 C -4,0 C 0,3 C 88 % 91 % 0 % 1004,4 hPa 0,0 l/m 0,0 km/h (0 Bft) SW 225 0 min -6,0 C -4,0 C 0,0 km/h (0 Bft)
09.01.2016 23:05 -4,3 C 21,8 C -3,5 C -4,1 C -4,1 C 0,2 C 88 % 91 % 0 % 1004,4 hPa 0,0 l/m 0,0 km/h (0 Bft) W-SW 247 0 min -6,0 C -4,1 C 0,0 km/h (0 Bft)
09.01.2016 23:10 -4,5 C 21,8 C -3,5 C -4,3 C -4,3 C 0,2 C 87 % 91 % 0 % 1004,6 hPa 0,0 l/m 0,0 km/h (0 Bft) W-SW 247 0 min -6,3 C -4,3 C 0,0 km/h (0 Bft)
09.01.2016 23:15 -4,5 C 21,8 C -3,6 C -4,5 C -4,6 C 0,0 C 87 % 91 % 0 % 1004,6 hPa 0,0 l/m 0,0 km/h (0 Bft) W-SW 247 0 min -6,3 C -4,6 C 0,0 km/h (0 Bft)
09.01.2016 23:20 -4,7 C 21,8 C -3,7 C -4,7 C -4,7 C 0,0 C 87 % 91 % 0 % 1004,6 hPa 0,0 l/m 0,0 km/h (0 Bft) W-SW 247 0 min -6,5 C -4,7 C 0,0 km/h (0 Bft)
09.01.2016 23:25 -4,8 C 21,8 C -3,7 C -4,9 C -5,0 C 0,0 C 87 % 91 % 0 % 1004,6 hPa 0,0 l/m 0,0 km/h (0 Bft) W-SW 247 0 min -6,6 C -5,0 C 0,0 km/h (0 Bft)
09.01.2016 23:30 -4,9 C 21,8 C -3,8 C -4,9 C -5,0 C 0,0 C 87 % 91 % 0 % 1004,4 hPa 0,0 l/m 0,0 km/h (0 Bft) S 180 0 min -6,7 C -5,0 C 0,0 km/h (0 Bft)
09.01.2016 23:35 -4,9 C 21,7 C -3,9 C -4,9 C -5,0 C 0,0 C 87 % 91 % 0 % 1004,4 hPa 0,0 l/m 0,0 km/h (0 Bft) S 180 0 min -6,7 C -5,0 C 0,0 km/h (0 Bft)
09.01.2016 23:40 -4,9 C 21,8 C -3,9 C -4,9 C -5,0 C 0,0 C 87 % 91 % 0 % 1004,4 hPa 0,0 l/m 0,0 km/h (0 Bft) S 180 0 min -6,7 C -5,0 C 0,0 km/h (0 Bft)
09.01.2016 23:45 -5,0 C 21,8 C -4,0 C -5,0 C -5,0 C 0,0 C 87 % 91 % 0 % 1004,4 hPa 0,0 l/m 0,0 km/h (0 Bft) S-SW 202 0 min -6,8 C -5,0 C 0,0 km/h (0 Bft)
09.01.2016 23:50 -4,9 C 21,7 C -3,9 C -4,7 C -4,7 C 0,2 C 87 % 91 % 0 % 1005,0 hPa 0,0 l/m 0,0 km/h (0 Bft) SO 135 0 min -6,7 C -4,7 C 0,0 km/h (0 Bft)
09.01.2016 23:55 -4,9 C 21,7 C -4,0 C -4,7 C -4,7 C 0,2 C 87 % 91 % 0 % 1005,0 hPa 0,0 l/m 0,0 km/h (0 Bft) NO 45 0 min -6,7 C -4,7 C 0,0 km/h (0 Bft)
_ Min-Zeit 04:20 10:40 04:30 04:35 04:35 00:00 14:25 14:15 00:00 22:50 - 00:00 - - - 04:20 04:35 00:00
Minimum _ -5,5 C 21,2 C -4,4 C -5,5 C -5,5 C 0,0 C 73 % 83 % 0 % 1004,4 hPa - 0,0 km/h (0 Bft) - - - -7,5 C -5,5 C 0,0 km/h (0 Bft)
_ Max-Zeit 13:50 00:00 12:50 13:05 13:05 11:25 09:30 04:00 11:25 00:00 00:00 05:40 - - 08:25 13:50 13:05 06:35
Maximum _ 4,7 C 22,2 C 3,1 C 6,2 C 6,2 C 3,1 C 89 % 91 % 82 % 1007,9 hPa 0,0 l/m 1,0 km/h
W-NW (0 Bft)
- - 5 min 0,7 C 6,2 C 2,3 km/h
NW (1 Bft)
Durchschnitt _ -1,9 C 21,7 C -1,5 C -1,5 C -1,6 C 0,5 C 84 % 89 % 11 % 1006,2 hPa #0,0 l/m 0,0 km/h (0 Bft) N - #10 min. -4,4 C -1,6 C 0,0 km/h (0 Bft)
2016 www.wetterstation-wechselburg.de